createdAt,value
2023-05-02T00:01:04.812Z,2.90
2023-05-02T00:03:48.358Z,4.40
2023-05-02T00:06:39.308Z,3.80
2023-05-02T00:09:46.849Z,4.10
2023-05-02T00:12:26.334Z,4.00
2023-05-02T00:15:16.772Z,7.30
2023-05-02T00:17:54.362Z,4.50
2023-05-02T00:20:57.389Z,4.00
2023-05-02T00:23:43.189Z,4.50
2023-05-02T00:26:24.895Z,4.30
2023-05-02T00:28:58.237Z,3.50
2023-05-02T00:31:32.813Z,4.30
2023-05-02T00:34:40.105Z,5.30
2023-05-02T00:37:15.388Z,5.50
2023-05-02T00:39:53.864Z,4.80
2023-05-02T00:42:35.826Z,4.00
2023-05-02T00:45:19.236Z,3.80
2023-05-02T00:47:55.425Z,3.80
2023-05-02T00:50:31.849Z,5.00
2023-05-02T00:53:05.843Z,5.50
2023-05-02T00:55:41.903Z,5.30
2023-05-02T01:02:05.340Z,4.70
2023-05-02T01:05:19.839Z,4.40
2023-05-02T01:08:22.785Z,3.70
2023-05-02T01:11:22.533Z,5.70
2023-05-02T01:14:02.008Z,5.80
2023-05-02T01:18:00.111Z,3.80
2023-05-02T01:20:44.888Z,5.00
2023-05-02T01:23:28.146Z,3.80
2023-05-02T01:26:40.135Z,3.70
2023-05-02T01:29:17.019Z,5.80
2023-05-02T01:32:03.279Z,4.10
2023-05-02T01:34:46.493Z,3.80
2023-05-02T01:37:23.571Z,4.60
2023-05-02T01:39:57.374Z,5.50
2023-05-02T01:42:27.883Z,3.40
2023-05-02T01:45:15.774Z,5.90
2023-05-02T01:48:22.196Z,4.40
2023-05-02T01:51:03.105Z,3.60
2023-05-02T01:54:18.744Z,3.80
2023-05-02T01:56:56.666Z,5.10
2023-05-02T01:59:43.084Z,4.90
2023-05-02T02:02:36.408Z,3.10
2023-05-02T02:08:11.747Z,5.50
2023-05-02T02:11:22.649Z,4.50
2023-05-02T02:18:01.561Z,4.60
2023-05-02T02:25:39.424Z,3.80
2023-05-02T02:28:27.761Z,4.40
2023-05-02T02:31:22.889Z,4.30
2023-05-02T02:33:58.935Z,6.50
2023-05-02T02:37:14.004Z,4.00
2023-05-02T02:40:03.850Z,5.50
2023-05-02T02:43:40.567Z,8.10
2023-05-02T02:47:15.486Z,6.70
2023-05-02T02:49:58.947Z,5.00
2023-05-02T02:53:18.105Z,5.60
2023-05-02T02:56:08.054Z,5.40
2023-05-02T02:59:17.856Z,4.00
2023-05-02T03:02:16.812Z,5.60
2023-05-02T03:04:47.154Z,7.10
2023-05-02T03:07:42.450Z,15.00
2023-05-02T03:11:09.402Z,16.50
2023-05-02T03:14:31.461Z,10.50
2023-05-02T03:17:38.641Z,13.10
2023-05-02T03:20:37.052Z,11.10
2023-05-02T03:23:20.002Z,7.40
2023-05-02T03:25:57.881Z,7.20
2023-05-02T03:29:36.098Z,5.60
2023-05-02T03:32:15.965Z,7.50
2023-05-02T03:35:07.899Z,7.00
2023-05-02T03:40:45.191Z,6.70
2023-05-02T03:43:22.705Z,6.80
2023-05-02T03:46:07.807Z,5.10
2023-05-02T03:49:01.738Z,6.30
2023-05-02T03:52:23.582Z,7.50
2023-05-02T03:55:12.138Z,9.80
2023-05-02T03:58:58.582Z,5.80
2023-05-02T04:01:55.278Z,3.90
2023-05-02T04:04:57.930Z,8.10
2023-05-02T04:07:44.629Z,4.90
2023-05-02T04:10:25.559Z,4.60
2023-05-02T04:13:28.949Z,6.50
2023-05-02T04:16:32.634Z,4.70
2023-05-02T04:23:59.448Z,5.30
2023-05-02T04:26:46.977Z,5.50
2023-05-02T04:29:20.685Z,6.40
2023-05-02T04:32:02.264Z,5.20
2023-05-02T04:34:38.467Z,5.00
2023-05-02T04:37:26.351Z,5.90
2023-05-02T04:40:24.062Z,5.40
2023-05-02T04:43:15.516Z,4.70
2023-05-02T04:46:18.877Z,4.90
2023-05-02T04:49:43.947Z,4.00
2023-05-02T04:52:42.674Z,3.50
2023-05-02T04:55:25.928Z,6.20
2023-05-02T04:58:50.482Z,3.70
2023-05-02T05:01:31.032Z,5.00
2023-05-02T05:04:05.312Z,6.40
2023-05-02T05:10:18.850Z,4.50
2023-05-02T05:13:20.090Z,6.60
2023-05-02T05:16:02.186Z,4.80
2023-05-02T05:22:52.403Z,5.80
2023-05-02T05:26:19.686Z,3.70
2023-05-02T05:29:15.488Z,5.40
2023-05-02T05:32:51.193Z,4.50
2023-05-02T05:43:04.766Z,5.00
2023-05-02T05:46:39.355Z,5.40
2023-05-02T05:53:29.969Z,4.90
2023-05-02T06:01:19.537Z,6.90
2023-05-02T06:04:20.544Z,4.80
2023-05-02T06:13:06.893Z,5.30
2023-05-02T06:23:19.304Z,6.80
2023-05-02T06:35:21.533Z,4.90
2023-05-02T06:42:17.129Z,4.20
2023-05-02T06:45:17.707Z,5.20
2023-05-02T06:47:51.688Z,5.20
2023-05-02T06:50:57.321Z,5.00
2023-05-02T06:56:44.108Z,6.60
2023-05-02T06:59:48.095Z,7.80
2023-05-02T07:02:45.679Z,5.50
2023-05-02T07:05:42.880Z,9.70
2023-05-02T07:08:26.493Z,4.90
2023-05-02T07:17:22.788Z,4.40
2023-05-02T07:24:02.447Z,6.10
2023-05-02T07:26:55.075Z,5.60
2023-05-02T07:30:16.474Z,6.00
2023-05-02T07:36:35.280Z,5.90
2023-05-02T07:40:25.632Z,5.10
2023-05-02T07:43:13.882Z,5.60
2023-05-02T07:45:51.577Z,5.10
2023-05-02T07:48:33.564Z,11.90
2023-05-02T07:51:34.142Z,12.90
2023-05-02T08:00:04.202Z,4.10
2023-05-02T08:03:16.392Z,3.10
2023-05-02T08:06:14.667Z,3.30
2023-05-02T08:09:17.715Z,4.60
2023-05-02T08:16:29.762Z,4.20
2023-05-02T08:20:15.917Z,3.70
2023-05-02T08:30:32.568Z,5.00
2023-05-02T08:33:58.715Z,4.60
2023-05-02T08:37:23.712Z,4.50
2023-05-02T08:40:03.142Z,4.80
2023-05-02T08:42:46.898Z,2.80
2023-05-02T08:45:30.426Z,4.20
2023-05-02T08:49:09.928Z,5.00
2023-05-02T08:53:00.859Z,2.70
2023-05-02T08:56:35.551Z,6.40
2023-05-02T08:59:49.837Z,6.00
2023-05-02T09:03:23.665Z,4.00
2023-05-02T09:10:49.647Z,3.40
2023-05-02T09:13:53.562Z,3.70
2023-05-02T09:16:38.827Z,3.50
2023-05-02T09:20:04.007Z,4.40
2023-05-02T09:23:05.523Z,5.40
2023-05-02T09:30:30.688Z,3.00
2023-05-02T09:33:31.406Z,3.50
2023-05-02T09:36:30.900Z,7.60
2023-05-02T09:39:34.871Z,2.80
2023-05-02T09:42:46.864Z,5.30
2023-05-02T09:56:08.237Z,2.90
2023-05-02T09:59:23.489Z,3.60
2023-05-02T10:03:29.805Z,3.90
2023-05-02T10:06:06.577Z,3.60
2023-05-02T10:17:07.248Z,4.70
2023-05-02T10:20:41.469Z,3.10
2023-05-02T10:24:16.734Z,3.40
2023-05-02T10:27:06.436Z,3.20
2023-05-02T10:30:50.600Z,3.50
2023-05-02T10:33:37.168Z,4.10
2023-05-02T10:36:37.557Z,3.20
2023-05-02T10:40:10.389Z,7.00
2023-05-02T10:46:56.756Z,4.20
2023-05-02T10:55:28.455Z,4.10
2023-05-02T10:58:50.484Z,3.80
2023-05-02T11:02:17.930Z,4.00
2023-05-02T11:06:05.637Z,3.20
2023-05-02T11:18:24.177Z,5.30
2023-05-02T11:30:58.885Z,4.00
2023-05-02T11:34:25.009Z,5.30
2023-05-02T11:37:51.017Z,5.00
2023-05-02T11:52:24.734Z,3.30
2023-05-02T11:56:48.470Z,3.30
2023-05-02T12:00:45.270Z,4.40
2023-05-02T12:03:47.481Z,4.70
2023-05-02T12:06:39.301Z,5.10
2023-05-02T12:16:27.767Z,5.20
2023-05-02T12:23:51.259Z,4.00
2023-05-02T12:26:47.384Z,4.50
2023-05-02T12:30:05.005Z,5.40
2023-05-02T12:33:37.507Z,3.90
2023-05-02T12:46:44.399Z,3.40
2023-05-02T12:50:04.004Z,3.60
2023-05-02T12:53:14.207Z,4.00
2023-05-02T12:56:48.850Z,6.10
2023-05-02T13:08:27.408Z,2.60
2023-05-02T13:11:14.854Z,4.80
2023-05-02T13:23:25.021Z,3.70
2023-05-02T13:33:23.145Z,3.00
2023-05-02T13:58:34.551Z,3.20
2023-05-02T14:10:48.680Z,4.10
2023-05-02T14:30:35.041Z,4.30
2023-05-02T14:34:13.764Z,4.10
2023-05-02T14:36:59.122Z,3.40
2023-05-02T14:40:25.571Z,3.20
2023-05-02T14:43:30.020Z,3.50
2023-05-02T14:46:16.842Z,5.20
2023-05-02T15:12:52.334Z,6.40
2023-05-02T15:24:31.190Z,3.30
2023-05-02T15:27:25.445Z,3.60
2023-05-02T15:34:42.598Z,3.30
2023-05-02T15:38:33.338Z,3.90
2023-05-02T15:46:48.977Z,3.70
2023-05-02T15:53:40.314Z,4.80
2023-05-02T16:21:00.636Z,4.50
2023-05-02T17:20:18.960Z,4.40
2023-05-02T17:37:49.382Z,6.40
2023-05-02T18:01:33.601Z,6.50
2023-05-02T18:30:50.375Z,5.60
2023-05-02T18:33:57.023Z,4.90
2023-05-02T18:42:26.912Z,7.90
2023-05-02T18:45:47.369Z,14.00
2023-05-02T19:31:05.566Z,7.70
2023-05-02T19:34:58.197Z,6.70
2023-05-02T19:37:51.469Z,5.10
2023-05-02T19:50:07.670Z,9.30
2023-05-02T20:11:24.925Z,6.40
2023-05-02T20:14:24.486Z,3.90
2023-05-02T20:21:18.618Z,3.50
2023-05-02T20:28:34.726Z,3.40
2023-05-02T20:32:02.983Z,5.00
2023-05-02T20:36:11.049Z,4.90
2023-05-02T20:38:49.413Z,3.90
2023-05-02T20:41:39.996Z,4.20
2023-05-02T20:44:48.701Z,3.90
2023-05-02T20:48:18.028Z,4.80
2023-05-02T20:56:01.188Z,5.20
2023-05-02T20:59:31.676Z,4.40
2023-05-02T21:03:19.251Z,6.00
2023-05-02T21:06:00.628Z,4.50
2023-05-02T21:09:04.779Z,3.70
2023-05-02T21:11:47.820Z,4.40
2023-05-02T21:15:04.059Z,4.80
2023-05-02T21:18:07.727Z,5.10
2023-05-02T21:20:56.983Z,4.60
2023-05-02T21:24:03.509Z,3.60
2023-05-02T21:31:51.936Z,5.50
2023-05-02T21:39:56.853Z,6.30
2023-05-02T21:42:47.972Z,6.60
2023-05-02T21:45:54.404Z,6.10
2023-05-02T21:48:46.209Z,4.60
2023-05-02T21:51:39.772Z,6.40
2023-05-02T21:54:27.533Z,4.70
2023-05-02T22:01:24.460Z,5.60
2023-05-02T22:04:13.046Z,5.70
2023-05-02T22:06:58.676Z,8.50
2023-05-02T22:09:48.522Z,4.80
2023-05-02T22:12:36.492Z,4.40
2023-05-02T22:15:22.474Z,6.00
2023-05-02T22:18:30.194Z,6.30
2023-05-02T22:21:22.428Z,6.20
2023-05-02T22:24:20.199Z,5.30
2023-05-02T22:27:06.794Z,6.20
2023-05-02T22:29:59.210Z,5.60
2023-05-02T22:32:46.983Z,4.90
2023-05-02T22:35:38.372Z,6.60
2023-05-02T22:38:17.104Z,5.40
2023-05-02T22:41:13.981Z,7.00
2023-05-02T22:44:11.880Z,4.30
2023-05-02T22:46:49.633Z,5.40
2023-05-02T22:50:21.195Z,6.50
2023-05-02T22:53:05.032Z,7.80
2023-05-02T22:55:44.910Z,10.10
2023-05-02T22:58:28.413Z,13.00
2023-05-02T23:01:12.206Z,15.30
2023-05-02T23:04:38.598Z,19.20
2023-05-02T23:07:28.858Z,14.80
2023-05-02T23:10:18.016Z,15.00
2023-05-02T23:12:58.863Z,9.50
2023-05-02T23:15:29.215Z,9.90
2023-05-02T23:18:23.282Z,9.90
2023-05-02T23:21:04.332Z,9.50
2023-05-02T23:24:15.550Z,6.00
2023-05-02T23:29:33.494Z,5.70
2023-05-02T23:32:15.893Z,8.90
2023-05-02T23:37:30.009Z,9.20
2023-05-02T23:40:11.672Z,7.00
2023-05-02T23:42:45.117Z,8.00
2023-05-02T23:45:19.902Z,5.90
2023-05-02T23:48:00.039Z,7.10
2023-05-02T23:50:33.399Z,8.00
2023-05-02T23:53:17.592Z,8.20
2023-05-02T23:55:58.251Z,6.60
2023-05-02T23:59:01.306Z,6.10
